DLH27J EDDF-KLAS
Flight info
| Callsign | DLH27J |
|---|---|
| Flight time | N/A |
| Altitude | 34000 |
| Route | OBOKA4S OBOKA Z28 DIBIR DCT BUDIP DCT MIMVA DCT GETNO DCT NIBOG DCT PIKIL/M082F360 DCT 5630N02000W 5730N03000W 5830N04000W 5930N05000W DCT URTAK/N0479F360 DCT MCKEE DCT PIGLA/N0477F380 DCT OMEVA DCT 50N098W DCT MOT DCT SWTHN DCT BOY DCT MLF DCT STEWW CHOWW2 |
| Aircraft | A346/H-SDE2E3FGHIJ3J4J5M1RWXY/LB1D1 |
Departure
| Time | N/A |
|---|---|
| Airport | Frankfurt Main Airport (EDDF) |
Arrival
| Time | 2026-05-06 10:50 |
|---|---|
| Airport | Harry Reid International Airport (KLAS) |
| Time | Latitude | Longitude | Altitude | Speed | Heading |
|---|---|---|---|---|---|
| 2026-05-06 10:28 | 37.29552 | -113.51249 | 30255 ft | 504 kts | 200° |
| 2026-05-06 10:29 | 37.26257 | -113.52779 | 29630 ft | 505 kts | 201° |
| 2026-05-06 10:29 | 37.23010 | -113.54455 | 28984 ft | 504 kts | 205° |
| 2026-05-06 10:29 | 37.19825 | -113.56299 | 28316 ft | 503 kts | 206° |
| 2026-05-06 10:29 | 37.16704 | -113.58134 | 27652 ft | 502 kts | 206° |
| 2026-05-06 10:30 | 37.13498 | -113.60023 | 26995 ft | 501 kts | 206° |
| 2026-05-06 10:30 | 37.10384 | -113.61853 | 26301 ft | 501 kts | 206° |
| 2026-05-06 10:30 | 37.07185 | -113.63728 | 25722 ft | 498 kts | 206° |
| 2026-05-06 10:30 | 37.04102 | -113.65530 | 25234 ft | 493 kts | 206° |
| 2026-05-06 10:31 | 37.00966 | -113.67359 | 24757 ft | 488 kts | 206° |
| 2026-05-06 10:31 | 36.97954 | -113.69113 | 24300 ft | 482 kts | 206° |
| 2026-05-06 10:31 | 36.94930 | -113.70873 | 23861 ft | 477 kts | 206° |
| 2026-05-06 10:31 | 36.91935 | -113.72619 | 23390 ft | 472 kts | 206° |
| 2026-05-06 10:32 | 36.88983 | -113.74344 | 22869 ft | 467 kts | 206° |
| 2026-05-06 10:32 | 36.86057 | -113.76055 | 22389 ft | 461 kts | 206° |
| 2026-05-06 10:32 | 36.83169 | -113.77740 | 21951 ft | 455 kts | 206° |
| 2026-05-06 10:32 | 36.80312 | -113.79402 | 21513 ft | 450 kts | 206° |
| 2026-05-06 10:33 | 36.77495 | -113.81040 | 21066 ft | 445 kts | 206° |
| 2026-05-06 10:33 | 36.74698 | -113.82666 | 20627 ft | 440 kts | 206° |
| 2026-05-06 10:33 | 36.71932 | -113.84273 | 20202 ft | 436 kts | 206° |
| 2026-05-06 10:33 | 36.69196 | -113.85860 | 19786 ft | 432 kts | 206° |
| 2026-05-06 10:34 | 36.66477 | -113.87438 | 19363 ft | 428 kts | 206° |
| 2026-05-06 10:34 | 36.63785 | -113.88998 | 18929 ft | 425 kts | 206° |
| 2026-05-06 10:34 | 36.61144 | -113.90615 | 18507 ft | 421 kts | 211° |
| 2026-05-06 10:34 | 36.58761 | -113.92686 | 18074 ft | 416 kts | 221° |
| 2026-05-06 10:35 | 36.56723 | -113.95214 | 17579 ft | 411 kts | 231° |
| 2026-05-06 10:35 | 36.54960 | -113.97986 | 17149 ft | 406 kts | 234° |
| 2026-05-06 10:35 | 36.53267 | -114.00764 | 16731 ft | 402 kts | 234° |
| 2026-05-06 10:35 | 36.51589 | -114.03524 | 16333 ft | 398 kts | 234° |
| 2026-05-06 10:36 | 36.49881 | -114.06315 | 15981 ft | 408 kts | 234° |
| 2026-05-06 10:36 | 36.48157 | -114.09108 | 15505 ft | 406 kts | 234° |
| 2026-05-06 10:36 | 36.46439 | -114.11879 | 15029 ft | 402 kts | 234° |
| 2026-05-06 10:36 | 36.44732 | -114.14624 | 14584 ft | 398 kts | 234° |
| 2026-05-06 10:37 | 36.43046 | -114.17332 | 14159 ft | 394 kts | 234° |
| 2026-05-06 10:37 | 36.41374 | -114.20013 | 13724 ft | 390 kts | 234° |
| 2026-05-06 10:37 | 36.39716 | -114.22669 | 13265 ft | 386 kts | 234° |
| 2026-05-06 10:37 | 36.38087 | -114.25251 | 12836 ft | 382 kts | 233° |
| 2026-05-06 10:38 | 36.36432 | -114.27848 | 12450 ft | 384 kts | 233° |
| 2026-05-06 10:38 | 36.34780 | -114.30435 | 12005 ft | 381 kts | 233° |
| 2026-05-06 10:38 | 36.33142 | -114.32999 | 11562 ft | 377 kts | 233° |
| 2026-05-06 10:38 | 36.31522 | -114.35534 | 11144 ft | 373 kts | 233° |
| 2026-05-06 10:39 | 36.29918 | -114.38045 | 10734 ft | 368 kts | 233° |
| 2026-05-06 10:39 | 36.28354 | -114.40489 | 10598 ft | 354 kts | 233° |
| 2026-05-06 10:39 | 36.26850 | -114.42838 | 10474 ft | 340 kts | 233° |
| 2026-05-06 10:39 | 36.25409 | -114.45089 | 10360 ft | 327 kts | 233° |
| 2026-05-06 10:40 | 36.24005 | -114.47254 | 10251 ft | 315 kts | 233° |
| 2026-05-06 10:40 | 36.22651 | -114.49327 | 10135 ft | 303 kts | 233° |
| 2026-05-06 10:40 | 36.21350 | -114.51317 | 10051 ft | 291 kts | 233° |
| 2026-05-06 10:40 | 36.20098 | -114.53234 | 9975 ft | 282 kts | 233° |
| 2026-05-06 10:41 | 36.18875 | -114.55107 | 9896 ft | 277 kts | 233° |
| 2026-05-06 10:41 | 36.17663 | -114.56967 | 9615 ft | 278 kts | 233° |
| 2026-05-06 10:41 | 36.16450 | -114.58829 | 9311 ft | 277 kts | 233° |
| 2026-05-06 10:41 | 36.15243 | -114.60675 | 9009 ft | 277 kts | 233° |
| 2026-05-06 10:42 | 36.14054 | -114.62560 | 8740 ft | 277 kts | 234° |
| 2026-05-06 10:42 | 36.12881 | -114.64450 | 8405 ft | 276 kts | 234° |
| 2026-05-06 10:42 | 36.11722 | -114.66318 | 8177 ft | 270 kts | 234° |
| 2026-05-06 10:42 | 36.10604 | -114.68107 | 8132 ft | 256 kts | 234° |
| 2026-05-06 10:43 | 36.09542 | -114.69807 | 8079 ft | 243 kts | 234° |
| 2026-05-06 10:43 | 36.08534 | -114.71420 | 8019 ft | 232 kts | 234° |
| 2026-05-06 10:43 | 36.07745 | -114.73116 | 7940 ft | 226 kts | 255° |
| 2026-05-06 10:44 | 36.07559 | -114.76983 | 7478 ft | 226 kts | 271° |
| 2026-05-06 10:44 | 36.07588 | -114.78921 | 7210 ft | 224 kts | 271° |
| 2026-05-06 10:44 | 36.07608 | -114.80846 | 6944 ft | 223 kts | 270° |
| 2026-05-06 10:44 | 36.07621 | -114.82754 | 6680 ft | 221 kts | 269° |
| 2026-05-06 10:45 | 36.07628 | -114.84653 | 6421 ft | 219 kts | 269° |
| 2026-05-06 10:45 | 36.07633 | -114.86532 | 6154 ft | 218 kts | 269° |
| 2026-05-06 10:45 | 36.07636 | -114.88406 | 5835 ft | 217 kts | 269° |
| 2026-05-06 10:45 | 36.07642 | -114.90277 | 5549 ft | 217 kts | 269° |
| 2026-05-06 10:46 | 36.07644 | -114.92142 | 5246 ft | 217 kts | 269° |
| 2026-05-06 10:46 | 36.07645 | -114.93982 | 4949 ft | 217 kts | 269° |
| 2026-05-06 10:46 | 36.07642 | -114.95838 | 4705 ft | 213 kts | 269° |
| 2026-05-06 10:46 | 36.07643 | -114.97634 | 4496 ft | 204 kts | 268° |
| 2026-05-06 10:47 | 36.07646 | -114.99361 | 4186 ft | 197 kts | 268° |
| 2026-05-06 10:47 | 36.07648 | -115.01017 | 3921 ft | 188 kts | 268° |
| 2026-05-06 10:47 | 36.07647 | -115.02584 | 3666 ft | 176 kts | 268° |
| 2026-05-06 10:47 | 36.07647 | -115.04058 | 3434 ft | 163 kts | 268° |
| 2026-05-06 10:48 | 36.07649 | -115.05442 | 3197 ft | 157 kts | 267° |
| 2026-05-06 10:48 | 36.07648 | -115.06823 | 2956 ft | 158 kts | 267° |
| 2026-05-06 10:48 | 36.07658 | -115.08163 | 2796 ft | 156 kts | 266° |
| 2026-05-06 10:48 | 36.07653 | -115.09527 | 2632 ft | 161 kts | 266° |
| 2026-05-06 10:49 | 36.07645 | -115.10869 | 2389 ft | 154 kts | 266° |
| 2026-05-06 10:49 | 36.07644 | -115.12170 | 2170 ft | 148 kts | 266° |
| 2026-05-06 10:49 | 36.07635 | -115.13448 | 2097 ft | 141 kts | 268° |
| 2026-05-06 10:49 | 36.07637 | -115.14430 | 2106 ft | 87 kts | 270° |
| 2026-05-06 10:50 | 36.07637 | -115.14959 | 2113 ft | 35 kts | 270° |
| 2026-05-06 10:50 | 36.07639 | -115.15110 | 2117 ft | 11 kts | 270° |
| 2026-05-06 10:50 | 36.07641 | -115.15161 | 2118 ft | 3 kts | 278° |
| 2026-05-06 10:50 | 36.07651 | -115.15193 | 2118 ft | 5 kts | 303° |
| 2026-05-06 10:51 | 36.07693 | -115.15231 | 2119 ft | 10 kts | 330° |
| 2026-05-06 10:51 | 36.07769 | -115.15282 | 2112 ft | 13 kts | 334° |
| 2026-05-06 10:51 | 36.07788 | -115.15293 | 2111 ft | 0 kts | 335° |
| 2026-05-06 10:51 | 36.07647 | -115.04123 | 3421 ft | 0 kts | 268° |
| 2026-05-06 10:52 | 36.07649 | -115.05371 | 3210 ft | 0 kts | 267° |
| 2026-05-06 10:52 | 36.07657 | -115.08095 | 2805 ft | 0 kts | 266° |
| 2026-05-06 10:52 | 36.07652 | -115.09677 | 2619 ft | 0 kts | 266° |
| 2026-05-06 10:52 | 36.07644 | -115.11015 | 2353 ft | 0 kts | 266° |
| 2026-05-06 10:53 | 36.07642 | -115.12313 | 2161 ft | 0 kts | 266° |
| 2026-05-06 10:53 | 36.07634 | -115.13582 | 2100 ft | 0 kts | 271° |
| 2026-05-06 10:53 | 36.07637 | -115.14510 | 2107 ft | 0 kts | 270° |
| 2026-05-06 10:53 | 36.07637 | -115.14929 | 2113 ft | 0 kts | 270° |
| 2026-05-06 10:54 | 36.07651 | -115.09704 | 2615 ft | 0 kts | 266° |
| 2026-05-06 10:54 | 36.07644 | -115.11044 | 2346 ft | 0 kts | 267° |
| 2026-05-06 10:54 | 36.07642 | -115.12338 | 2158 ft | 0 kts | 267° |
| 2026-05-06 10:55 | 36.07634 | -115.13591 | 2100 ft | 0 kts | 271° |
| 2026-05-06 10:55 | 36.07788 | -115.15293 | 2111 ft | 0 kts | 335° |
| 2026-05-06 10:55 | 36.07789 | -115.15293 | 2111 ft | 1 kts | 345° |
| 2026-05-06 10:56 | 36.07799 | -115.15283 | 2111 ft | 6 kts | 54° |
| 2026-05-06 10:56 | 36.07807 | -115.15196 | 2109 ft | 14 kts | 87° |
| 2026-05-06 10:56 | 36.07805 | -115.15046 | 2108 ft | 20 kts | 94° |
| 2026-05-06 10:56 | 36.07792 | -115.14850 | 2107 ft | 25 kts | 95° |
| 2026-05-06 10:57 | 36.07775 | -115.14624 | 2105 ft | 27 kts | 95° |
| 2026-05-06 10:57 | 36.07759 | -115.14393 | 2105 ft | 23 kts | 94° |
| 2026-05-06 10:57 | 36.07755 | -115.14206 | 2103 ft | 19 kts | 89° |
| 2026-05-06 10:57 | 36.07756 | -115.14031 | 2102 ft | 22 kts | 90° |
| 2026-05-06 10:58 | 36.07756 | -115.13865 | 2101 ft | 14 kts | 90° |
| 2026-05-06 10:58 | 36.07756 | -115.13730 | 2101 ft | 17 kts | 90° |
| 2026-05-06 10:58 | 36.07755 | -115.13567 | 2100 ft | 20 kts | 90° |
| 2026-05-06 10:58 | 36.07755 | -115.13409 | 2098 ft | 10 kts | 90° |
| 2026-05-06 10:59 | 36.07765 | -115.13309 | 2097 ft | 12 kts | 58° |
| 2026-05-06 10:59 | 36.07851 | -115.13287 | 2096 ft | 13 kts | 0° |
| 2026-05-06 10:59 | 36.07953 | -115.13291 | 2096 ft | 16 kts | 359° |
| 2026-05-06 10:59 | 36.08077 | -115.13293 | 2096 ft | 19 kts | 359° |
| 2026-05-06 11:00 | 36.08219 | -115.13296 | 2097 ft | 21 kts | 359° |
| 2026-05-06 11:00 | 36.08290 | -115.13295 | 2100 ft | 9 kts | 1° |
| 2026-05-06 11:00 | 36.08356 | -115.13294 | 2101 ft | 4 kts | 1° |
| 2026-05-06 11:00 | 36.08383 | -115.13300 | 2101 ft | 5 kts | 336° |
| 2026-05-06 11:01 | 36.08422 | -115.13321 | 2101 ft | 8 kts | 337° |
| 2026-05-06 11:01 | 36.08456 | -115.13342 | 2101 ft | 0 kts | 327° |
| 2026-05-06 11:01 | 36.08466 | -115.13349 | 2090 ft | 3 kts | 335° |
| 2026-05-06 11:01 | 36.08493 | -115.13360 | 2101 ft | 5 kts | 0° |
| 2026-05-06 11:02 | 36.08510 | -115.13361 | 2101 ft | 1 kts | 354° |
| 2026-05-06 11:02 | 36.08523 | -115.13363 | 2101 ft | 0 kts | 355° |
| 2026-05-06 11:02 | 36.08527 | -115.13363 | 2101 ft | 0 kts | 359° |